x

West Point, Wa (wpow1) Weather Station

12:00am - Sun 29th May 2016 All times are PDT. -7 hours from GMT.

  • Wind
    14mph, 17mph gusts
  • Air Temp 55°f
  • Sea Pressure 1016.8mb
  • West Point, Wa
  • West Point, Wa

More Historic Weather Station data

Upgrade to MSW Pro to gain access to the past 30 days of data for over 8000 Wavebouys and Weather Stations around the globe.

Join Pro

Comparision Forecast

View Surf forecast
   
Sun 05/29 12:00am 14 17 mph 1016.8mb 55f
Sat 05/28 11:00pm 15 16 mph 1016.8mb 55f
10:00pm 21 25 mph 1016.7mb 56f
9:00pm 20 22 mph 1016.4mb 55f
8:00pm 18 20 mph 1016.5mb 55f
7:00pm 21 23 mph 1016.3mb 56f
6:00pm 21 22 mph 1016.2mb 55f
5:00pm 16 17 mph 1016.9mb 55f
4:00pm 22 25 mph 1017.1mb 55f
3:00pm 22 24 mph 1017mb 55f
2:00pm 25 28 mph 1017mb 57f
1:00pm 18 20 mph 1017.3mb 56f
12:00pm 20 21 mph 1017.6mb 55f
11:00am 23 24 mph 1017.7mb 54f
10:00am 22 24 mph 1017.9mb 52f
9:00am 24 26 mph 1018.1mb 51f
8:00am 25 28 mph 1018.3mb 51f
7:00am 21 23 mph 1018.3mb 52f
6:00am 21 24 mph 1018.6mb 51f
5:00am 22 24 mph 1018.8mb 51f
4:00am 21 23 mph 1019mb 52f
3:00am 15 16 mph 1019.3mb 52f
2:00am 15 16 mph 1019.7mb 52f
1:00am 13 15 mph 1020.1mb 52f
12:00am 2 5 mph 1020.3mb 53f
Fri 05/27 11:00pm 2 3 mph 1020.4mb 53f
10:00pm 15
mph
1020.3mb 53f
9:00pm 15 16 mph 1019.9mb 53f
8:00pm 15 16 mph 1019.9mb 54f
7:00pm 17 20 mph 1019.8mb 54f
6:00pm 8 13 mph 1020mb 56f
5:00pm 15 21 mph 1019.8mb 55f
4:00pm 14 16 mph 1020.4mb 55f
3:00pm 3 5 mph 1020.3mb 59f
2:00pm 2
mph
1020.8mb 58f
1:00pm 5 6 mph 1021.1mb 55f
12:00pm 7
mph
1021.4mb 54f
11:00am 8
mph
1021.5mb 53f
10:00am 7
mph
1021.4mb 52f
9:00am 8
mph
1021.5mb 50f
8:00am 6 9 mph 1021.2mb 50f
7:00am 2 5 mph 1020.9mb 48f
6:00am 5 6 mph 1020.7mb 47f
5:00am 2 5 mph 1020.5mb 49f
4:00am 6 10 mph 1020.4mb 49f
3:00am 3 5 mph 1020.7mb 49f
2:00am 2 5 mph 1020.6mb 51f
1:00am 5 6 mph 1020.8mb 52f
12:00am 10 13 mph 1021mb 53f
Thu 05/26 11:00pm 14 15 mph 1020.8mb 54f
10:00pm 8 10 mph 1020.6mb 53f
9:00pm 6 8 mph 1020.2mb 54f
8:00pm 13 15 mph 1020.2mb 53f
7:00pm 14 15 mph 1020.1mb 53f
6:00pm 13 14 mph 1020.5mb 54f
5:00pm 9 10 mph 1020.7mb 56f
4:00pm 11 13 mph 1021mb 57f
3:00pm 7
mph
1021.5mb 58f
2:00pm 8 9 mph 1021.9mb 56f
1:00pm 11 13 mph 1022.3mb 53f
12:00pm 11 13 mph 1022.4mb 52f
11:00am 8 9 mph 1022.7mb 51f
10:00am 7 8 mph 1022.6mb 51f
9:00am 3 5 mph 1022.5mb 51f
8:00am 6 7 mph 1022.6mb 50f
7:00am 13 15 mph 1022.4mb 52f
6:00am 10 11 mph 1022.3mb 52f
5:00am 13 14 mph 1022.2mb 52f
4:00am 16 17 mph 1022.3mb 52f
3:00am 17 20 mph 1022.3mb 53f
2:00am 15 16 mph 1022.3mb 54f
1:00am 15 16 mph 1022.3mb 54f
12:00am 13 14 mph 1022.5mb 54f
Wed 05/25 11:00pm 14 15 mph 1022.4mb 55f
10:00pm 14 15 mph 1022.2mb 55f
9:00pm 13 14 mph 1021.7mb 56f
8:00pm 11 13 mph 1021.5mb 56f
7:00pm 13 14 mph 1021.3mb 56f
6:00pm 14 15 mph 1021.5mb 57f
5:00pm 15
mph
1021.4mb 58f
4:00pm 13 14 mph 1021.4mb 58f
3:00pm 11 13 mph 1021.4mb 59f
2:00pm 13 14 mph 1021.4mb 58f
1:00pm 15 16 mph 1021.2mb 58f
12:00pm 5
mph
1021.1mb 56f
11:00am 9 10 mph 1020.9mb 55f
10:00am 8
mph
1020.6mb 54f
9:00am 6 7 mph 1020.4mb 54f